Centerville, TX (75833)

5:22 AM CDT on September 16, 2014 (GMT -0500)
Hillside | Change Station
CLOSE
Current Station
Personal Weather Station
Location: Centerville, TX
Elevation: 387 ft
Nearby Weather Stations

Elev 387 ft 31.27 °N, 95.96 °W | Updated 8 minutes ago

Partly Cloudy
Partly Cloudy
73.3 °F
Feels Like 70 °F
N
0.0
Wind Variable Wind from East
Gusts 0.0 mph

Today
High -- | Low -- °F
--% Chance of Precip.
Yesterday
High -- | Low -- °F
Precip. -- in
7:08 AM 7:28 PM
Waning Gibbous, 47% visible
Pressure 30.10 in
Visibility 3.0 miles
Clouds Clear
Heat Index 70 °F
Dew Point 71 °F
Humidity 93%
Rainfall 0.00 in
Snow Depth Not available.
UV 0 out of 12
Pollen 10.00 out of 12
Air Quality Not available.
Flu Activity Not available.
METAR KDKR 160950Z AUTO 05004KT 3SM BR CLR 24/24 A3010 RMK AO2

More Conditions Fewer Conditions

Pressure 30.10 in
Visibility 3.0 miles
Clouds Clear
Heat Index 70 °F
Dew Point 71 °F
Humidity 93%
Rainfall 0.00 in
Snow Depth Not available.
UV 0 out of 12
Pollen 10.00 out of 12
Air Quality Not available.
Flu Activity Not available.
METAR KDKR 160950Z AUTO 05004KT 3SM BR CLR 24/24 A3010 RMK AO2

More Conditions Fewer Conditions

Nowcast | as of 3:59 am CDT on September 16, 2014

Scattered showers with light rain will continue to move east across parts of North Texas early this morning. Most of the rain will occur in areas south of a line from Comanche to Canton...but a few sprinkles will be possible across any part of North Texas. Some areas that could receive a brief period of light rain through 6 am include Hamilton...Lampasas...Waco...Corsicana...and Palestine. Rainfall amounts will total a few hundredths of an inch or less. Across the rest of North Texas...skies will remain partly to mostly cloudy early this morning. Temperatures will remain steady or slowly fall to range from 70 to 75. Winds will remain light and variable.

×

10-Day Weather Forecast

Almanac

Astronomy

Sep. 16, 2014 Rise Set
Actual Time 7:08 AM CDT 7:28 PM CDT
Civil Twilight 6:44 AM CDT 7:52 PM CDT
Nautical Twilight 6:15 AM CDT 8:20 PM CDT
Astronomical Twilight 5:47 AM CDT 8:49 PM CDT
Moon 12:35 AM CDT 2:36 PM CDT
Length of Visible Light 13h 08m
Length of Day
12h 19m
Tomorrow will be 1m 53s shorter.
Waning Gibbous, 47% of the Moon is Illuminated
Today
Waning Gibbous
Sep 24
New
Oct 1
First Quarter
Oct 8
Full
Oct 15
Last Quarter

Today's Extremes

State Highs State Lows

Community

WunderPhotos

Upload Photos

1,753,718 photos uploaded!

WunderBlogs® & News

Nearby

Snow Depth

Station Depth Elevation
No new snow has been reported.

Earthquake Activity

City Distance Mag. Time & Date
No recent earthquake activity has been reported nearby.
Minimum magnitude displayed is 2.5.

Coastal Water Temperatures

Place Temperature
No Stations Reporting

Nearby Weather Stations